createdAt,value
2022-09-09T00:01:49.142Z,8.45
2022-09-09T00:04:22.105Z,8.77
2022-09-09T00:07:07.153Z,7.32
2022-09-09T00:09:56.703Z,7.85
2022-09-09T00:12:45.368Z,7.70
2022-09-09T00:15:23.365Z,6.93
2022-09-09T00:18:25.474Z,6.68
2022-09-09T00:21:08.944Z,8.95
2022-09-09T00:23:40.551Z,7.55
2022-09-09T00:26:16.484Z,10.43
2022-09-09T00:28:59.306Z,9.95
2022-09-09T00:31:31.519Z,6.85
2022-09-09T00:34:14.196Z,4.72
2022-09-09T00:36:42.571Z,9.00
2022-09-09T00:39:24.693Z,6.30
2022-09-09T00:42:21.646Z,7.13
2022-09-09T00:45:18.693Z,7.57
2022-09-09T00:47:52.377Z,6.05
2022-09-09T00:50:34.101Z,8.23
2022-09-09T00:53:17.265Z,7.28
2022-09-09T00:55:53.306Z,7.07
2022-09-09T00:58:20.176Z,7.30
2022-09-09T01:01:19.779Z,8.93
2022-09-09T01:03:55.113Z,6.38
2022-09-09T01:06:39.840Z,6.00
2022-09-09T01:09:38.575Z,9.18
2022-09-09T01:12:26.069Z,8.90
2022-09-09T01:15:02.189Z,6.55
2022-09-09T01:17:36.885Z,8.27
2022-09-09T01:20:31.470Z,8.60
2022-09-09T01:22:58.365Z,9.77
2022-09-09T01:25:43.542Z,7.35
2022-09-09T01:28:16.774Z,8.73
2022-09-09T01:30:43.884Z,8.73
2022-09-09T01:33:19.560Z,5.50
2022-09-09T01:35:58.175Z,4.40
2022-09-09T01:38:26.344Z,5.22
2022-09-09T01:40:54.384Z,4.78
2022-09-09T01:43:22.780Z,7.97
2022-09-09T01:45:52.248Z,4.13
2022-09-09T01:48:20.431Z,7.03
2022-09-09T01:50:47.413Z,7.85
2022-09-09T01:53:18.214Z,4.50
2022-09-09T01:56:10.313Z,4.85
2022-09-09T01:58:55.314Z,6.05
2022-09-09T02:01:40.636Z,6.03
2022-09-09T02:04:22.134Z,4.25
2022-09-09T02:06:52.243Z,3.97
2022-09-09T02:09:22.547Z,4.90
2022-09-09T02:11:57.528Z,4.13
2022-09-09T02:14:31.768Z,5.15
2022-09-09T02:17:05.711Z,4.70
2022-09-09T02:19:40.546Z,4.38
2022-09-09T02:22:07.580Z,5.72
2022-09-09T02:24:37.613Z,5.28
2022-09-09T02:27:08.738Z,4.72
2022-09-09T02:29:46.168Z,5.75
2022-09-09T02:32:17.270Z,3.70
2022-09-09T02:37:21.393Z,4.22
2022-09-09T02:39:49.019Z,7.80
2022-09-09T02:42:16.265Z,4.35
2022-09-09T02:44:43.337Z,6.07
2022-09-09T02:47:29.506Z,6.25
2022-09-09T02:50:14.812Z,5.75
2022-09-09T02:52:50.551Z,4.10
2022-09-09T02:55:41.179Z,5.22
2022-09-09T02:58:13.280Z,6.65
2022-09-09T03:00:41.727Z,3.42
2022-09-09T03:03:10.603Z,4.97
2022-09-09T03:05:37.937Z,5.60
2022-09-09T03:08:06.652Z,5.30
2022-09-09T03:10:34.605Z,5.50
2022-09-09T03:13:01.679Z,5.38
2022-09-09T03:15:31.438Z,6.07
2022-09-09T03:17:59.419Z,5.25
2022-09-09T03:20:27.850Z,4.40
2022-09-09T03:22:55.590Z,3.80
2022-09-09T03:25:26.933Z,3.70
2022-09-09T03:27:56.293Z,5.85
2022-09-09T03:30:28.317Z,3.20
2022-09-09T03:32:56.550Z,3.90
2022-09-09T03:35:23.564Z,6.93
2022-09-09T03:37:50.610Z,4.45
2022-09-09T03:40:17.713Z,3.55
2022-09-09T03:42:44.594Z,3.88
2022-09-09T03:45:12.041Z,3.97
2022-09-09T03:47:39.113Z,3.90
2022-09-09T03:50:10.088Z,2.35
2022-09-09T03:52:38.840Z,3.45
2022-09-09T03:55:07.038Z,2.90
2022-09-09T03:57:37.187Z,3.47
2022-09-09T04:00:06.359Z,3.63
2022-09-09T04:02:33.394Z,4.65
2022-09-09T04:05:00.966Z,2.72
2022-09-09T04:07:29.493Z,3.92
2022-09-09T04:09:56.617Z,4.88
2022-09-09T04:12:23.746Z,3.00
2022-09-09T04:14:50.750Z,3.50
2022-09-09T04:17:18.703Z,4.43
2022-09-09T04:19:45.656Z,2.72
2022-09-09T04:22:12.674Z,2.25
2022-09-09T04:24:39.699Z,2.60
2022-09-09T04:27:06.742Z,4.53
2022-09-09T04:29:33.658Z,2.55
2022-09-09T04:32:00.583Z,4.38
2022-09-09T04:34:27.553Z,4.63
2022-09-09T04:36:54.532Z,3.70
2022-09-09T04:39:21.466Z,5.55
2022-09-09T04:41:48.553Z,5.30
2022-09-09T04:44:15.704Z,6.03
2022-09-09T04:46:42.788Z,5.63
2022-09-09T04:49:14.500Z,4.88
2022-09-09T04:51:42.047Z,7.10
2022-09-09T04:54:08.916Z,2.17
2022-09-09T04:56:35.875Z,2.85
2022-09-09T04:59:04.250Z,6.82
2022-09-09T05:01:31.121Z,29.48
2022-09-09T05:03:58.017Z,47.35
2022-09-09T05:06:25.432Z,101.05
2022-09-09T05:08:52.556Z,86.50
2022-09-09T05:11:25.455Z,49.55
2022-09-09T05:13:52.977Z,53.45
2022-09-09T05:16:20.680Z,40.90
2022-09-09T05:18:48.409Z,43.15
2022-09-09T05:21:16.892Z,41.25
2022-09-09T05:23:44.054Z,32.05
2022-09-09T05:26:17.750Z,27.75
2022-09-09T05:28:45.349Z,27.90
2022-09-09T05:31:14.376Z,24.95
2022-09-09T05:33:44.258Z,18.90
2022-09-09T05:36:16.261Z,21.95
2022-09-09T05:38:43.640Z,16.60
2022-09-09T05:41:17.013Z,15.07
2022-09-09T05:43:51.078Z,14.23
2022-09-09T05:46:21.462Z,14.30
2022-09-09T05:48:52.178Z,9.75
2022-09-09T05:51:25.460Z,11.00
2022-09-09T05:54:01.632Z,12.43
2022-09-09T05:56:30.178Z,11.32
2022-09-09T05:58:57.726Z,11.00
2022-09-09T06:01:33.084Z,5.35
2022-09-09T06:04:00.262Z,6.85
2022-09-09T06:06:31.687Z,9.65
2022-09-09T06:08:59.579Z,4.93
2022-09-09T06:11:29.426Z,5.38
2022-09-09T06:13:56.456Z,5.82
2022-09-09T06:16:26.059Z,4.97
2022-09-09T06:18:54.527Z,4.47
2022-09-09T06:21:27.303Z,4.75
2022-09-09T06:23:58.994Z,4.85
2022-09-09T06:26:31.814Z,5.95
2022-09-09T06:31:31.864Z,4.30
2022-09-09T06:34:00.205Z,4.75
2022-09-09T06:36:32.469Z,2.90
2022-09-09T06:39:00.237Z,6.97
2022-09-09T06:41:29.562Z,9.32
2022-09-09T06:43:59.179Z,5.28
2022-09-09T06:46:32.513Z,5.00
2022-09-09T06:49:01.095Z,5.50
2022-09-09T06:51:37.501Z,6.88
2022-09-09T06:54:05.110Z,5.90
2022-09-09T06:56:36.192Z,5.65
2022-09-09T07:01:34.598Z,2.70
2022-09-09T07:04:03.185Z,5.70
2022-09-09T07:06:32.453Z,4.43
2022-09-09T07:09:07.778Z,5.60
2022-09-09T07:11:40.526Z,4.38
2022-09-09T07:14:08.293Z,3.45
2022-09-09T07:16:38.276Z,3.05
2022-09-09T07:19:05.890Z,3.42
2022-09-09T07:21:33.856Z,4.65
2022-09-09T07:24:01.419Z,4.43
2022-09-09T07:26:30.733Z,2.95
2022-09-09T07:28:58.514Z,4.07
2022-09-09T07:31:27.434Z,7.75
2022-09-09T07:33:54.829Z,4.35
2022-09-09T07:36:33.508Z,3.95
2022-09-09T07:39:04.384Z,3.47
2022-09-09T07:41:41.785Z,5.60
2022-09-09T07:44:12.914Z,5.43
2022-09-09T07:46:41.058Z,6.22
2022-09-09T07:49:09.882Z,4.82
2022-09-09T07:51:42.352Z,4.72
2022-09-09T07:54:14.669Z,4.00
2022-09-09T07:56:42.894Z,5.50
2022-09-09T07:59:10.835Z,6.47
2022-09-09T08:01:41.125Z,5.00
2022-09-09T08:04:11.005Z,6.45
2022-09-09T08:06:40.889Z,6.10
2022-09-09T08:09:09.289Z,4.38
2022-09-09T08:11:39.157Z,3.90
2022-09-09T08:14:12.388Z,4.37
2022-09-09T08:16:42.677Z,3.92
2022-09-09T08:19:10.039Z,4.90
2022-09-09T08:21:40.521Z,5.32
2022-09-09T08:24:09.217Z,2.80
2022-09-09T08:26:41.546Z,3.67
2022-09-09T08:29:11.641Z,4.65
2022-09-09T08:31:41.410Z,4.30
2022-09-09T08:34:10.478Z,3.65
2022-09-09T08:36:40.399Z,4.65
2022-09-09T08:39:09.993Z,3.80
2022-09-09T08:42:08.000Z,2.80
2022-09-09T08:44:48.217Z,4.10
2022-09-09T08:47:37.909Z,2.92
2022-09-09T08:50:25.918Z,4.00
2022-09-09T08:53:03.717Z,4.75
2022-09-09T08:55:40.801Z,1.55
2022-09-09T08:58:15.526Z,2.97
2022-09-09T09:00:48.614Z,3.35
2022-09-09T09:03:38.777Z,2.72
2022-09-09T09:06:11.659Z,3.40
2022-09-09T09:08:45.298Z,3.00
2022-09-09T09:11:13.009Z,4.78
2022-09-09T09:13:44.023Z,5.93
2022-09-09T09:16:36.686Z,4.07
2022-09-09T09:19:04.874Z,3.05
2022-09-09T09:21:45.123Z,4.03
2022-09-09T09:24:33.773Z,6.13
2022-09-09T09:27:13.938Z,7.00
2022-09-09T09:30:03.746Z,9.07
2022-09-09T09:32:35.336Z,5.38
2022-09-09T09:35:09.315Z,11.10
2022-09-09T09:37:37.134Z,5.80
2022-09-09T09:40:12.974Z,5.60
2022-09-09T09:43:00.176Z,9.60
2022-09-09T09:45:30.616Z,8.98
2022-09-09T09:48:07.759Z,8.20
2022-09-09T09:50:35.901Z,9.32
2022-09-09T09:53:08.155Z,7.57
2022-09-09T09:55:38.351Z,9.88
2022-09-09T09:58:07.415Z,14.07
2022-09-09T10:00:38.418Z,8.02
2022-09-09T10:05:47.408Z,8.02
2022-09-09T10:08:17.998Z,9.18
2022-09-09T10:10:54.071Z,12.40
2022-09-09T10:13:42.096Z,9.25
2022-09-09T10:16:22.232Z,7.22
2022-09-09T10:19:14.463Z,8.02
2022-09-09T10:22:12.603Z,9.23
2022-09-09T10:25:17.655Z,6.38
2022-09-09T10:28:22.184Z,8.30
2022-09-09T10:30:52.052Z,9.15
2022-09-09T10:33:42.051Z,11.65
2022-09-09T10:36:21.812Z,9.38
2022-09-09T10:39:03.702Z,4.88
2022-09-09T10:41:56.111Z,7.95
2022-09-09T10:44:31.795Z,14.52
2022-09-09T10:47:16.923Z,11.98
2022-09-09T10:49:50.702Z,11.82
2022-09-09T10:52:28.807Z,9.95
2022-09-09T10:54:55.691Z,10.43
2022-09-09T10:57:51.207Z,12.82
2022-09-09T11:00:32.604Z,10.45
2022-09-09T11:03:04.008Z,10.38
2022-09-09T11:05:47.280Z,11.93
2022-09-09T11:08:21.156Z,11.30
2022-09-09T11:11:12.358Z,12.75
2022-09-09T11:16:43.144Z,10.82
2022-09-09T11:19:36.248Z,9.25
2022-09-09T11:22:34.982Z,8.98
2022-09-09T11:25:28.183Z,9.98
2022-09-09T11:28:13.653Z,8.30
2022-09-09T11:31:17.863Z,10.85
2022-09-09T11:34:09.688Z,7.15
2022-09-09T11:36:57.483Z,5.97
2022-09-09T11:39:55.400Z,6.60
2022-09-09T11:42:25.526Z,7.85
2022-09-09T11:44:54.522Z,9.32
2022-09-09T11:47:33.104Z,7.38
2022-09-09T11:50:11.501Z,5.55
2022-09-09T11:52:39.774Z,6.10
2022-09-09T11:55:34.338Z,11.00
2022-09-09T11:58:05.298Z,10.65
2022-09-09T12:00:46.836Z,9.75
2022-09-09T12:03:44.826Z,8.80
2022-09-09T12:06:14.800Z,8.38
2022-09-09T12:08:46.825Z,7.63
2022-09-09T12:11:26.401Z,6.22
2022-09-09T12:13:59.424Z,5.07
2022-09-09T12:16:35.747Z,5.90
2022-09-09T12:19:22.114Z,4.10
2022-09-09T12:22:32.168Z,6.88
2022-09-09T12:25:11.400Z,6.07
2022-09-09T12:27:52.531Z,5.82
2022-09-09T12:32:46.489Z,6.35
2022-09-09T12:35:21.807Z,5.20
2022-09-09T12:37:51.643Z,8.10
2022-09-09T12:40:24.921Z,7.03
2022-09-09T12:42:52.638Z,5.68
2022-09-09T12:45:26.396Z,7.38
2022-09-09T12:47:59.442Z,7.05
2022-09-09T12:50:32.600Z,3.80
2022-09-09T12:53:03.619Z,7.15
2022-09-09T12:58:00.793Z,6.13
2022-09-09T13:00:28.362Z,3.83
2022-09-09T13:03:03.753Z,2.40
2022-09-09T13:05:40.133Z,6.85
2022-09-09T13:08:12.703Z,3.22
2022-09-09T13:11:00.127Z,5.55
2022-09-09T13:13:36.482Z,4.93
2022-09-09T13:16:06.873Z,5.82
2022-09-09T13:18:39.742Z,3.47
2022-09-09T13:21:06.728Z,2.97
2022-09-09T13:23:36.565Z,2.42
2022-09-09T13:26:08.956Z,5.63
2022-09-09T13:28:36.380Z,5.78
2022-09-09T13:31:20.927Z,4.50
2022-09-09T13:33:47.933Z,7.10
2022-09-09T13:36:18.528Z,4.68
2022-09-09T13:39:00.905Z,5.53
2022-09-09T13:41:34.933Z,5.45
2022-09-09T13:44:03.884Z,6.85
2022-09-09T13:46:40.385Z,12.15
2022-09-09T13:49:10.258Z,5.43
2022-09-09T13:51:38.837Z,6.15
2022-09-09T13:54:11.453Z,3.83
2022-09-09T13:56:40.232Z,6.93
2022-09-09T13:59:13.023Z,3.42
2022-09-09T14:01:40.045Z,3.67
2022-09-09T14:04:07.873Z,6.78
2022-09-09T14:06:39.534Z,3.75
2022-09-09T14:09:07.675Z,4.20
2022-09-09T14:11:34.904Z,4.03
2022-09-09T14:14:02.246Z,5.65
2022-09-09T14:16:29.389Z,5.05
2022-09-09T14:19:00.504Z,2.72
2022-09-09T14:23:54.991Z,3.30
2022-09-09T14:26:25.591Z,3.60
2022-09-09T14:28:55.577Z,2.88
2022-09-09T14:31:24.791Z,6.85
2022-09-09T14:33:52.369Z,3.55
2022-09-09T14:36:19.922Z,6.82
2022-09-09T14:38:47.348Z,2.50
2022-09-09T14:41:20.054Z,6.18
2022-09-09T14:43:47.727Z,3.95
2022-09-09T14:46:17.657Z,4.55
2022-09-09T14:48:46.512Z,4.88
2022-09-09T14:51:17.071Z,4.53
2022-09-09T14:53:45.525Z,3.47
2022-09-09T14:56:15.774Z,5.05
2022-09-09T14:58:43.700Z,5.50
2022-09-09T15:01:13.449Z,8.77
2022-09-09T15:03:42.069Z,4.03
2022-09-09T15:06:10.884Z,2.58
2022-09-09T15:08:42.443Z,5.88
2022-09-09T15:11:11.624Z,2.20
2022-09-09T15:13:40.603Z,4.82
2022-09-09T15:16:16.987Z,5.57
2022-09-09T15:18:46.253Z,8.73
2022-09-09T15:21:13.913Z,5.00
2022-09-09T15:23:41.209Z,7.03
2022-09-09T15:26:08.906Z,6.97
2022-09-09T15:28:38.710Z,4.78
2022-09-09T15:31:12.665Z,5.15
2022-09-09T15:33:39.688Z,4.90
2022-09-09T15:36:26.697Z,3.05
2022-09-09T15:38:54.275Z,4.18
2022-09-09T15:41:23.107Z,2.65
2022-09-09T15:43:57.909Z,5.32
2022-09-09T15:46:42.370Z,6.07
2022-09-09T15:49:12.144Z,5.30
2022-09-09T15:51:43.132Z,4.10
2022-09-09T15:54:18.087Z,3.30
2022-09-09T15:56:47.461Z,2.72
2022-09-09T15:59:16.001Z,6.70
2022-09-09T16:01:44.446Z,5.20
2022-09-09T16:04:11.946Z,5.53
2022-09-09T16:06:38.916Z,3.70
2022-09-09T16:09:08.239Z,3.35
2022-09-09T16:11:38.131Z,15.23
2022-09-09T16:14:05.306Z,9.80
2022-09-09T16:16:32.650Z,8.13
2022-09-09T16:19:02.978Z,4.20
2022-09-09T16:21:36.394Z,7.97
2022-09-09T16:24:05.271Z,9.82
2022-09-09T16:26:35.853Z,4.80
2022-09-09T16:29:04.065Z,7.53
2022-09-09T16:31:33.525Z,3.97
2022-09-09T16:34:01.052Z,12.02
2022-09-09T16:36:32.853Z,18.48
2022-09-09T16:39:02.031Z,7.95
2022-09-09T16:41:30.068Z,8.57
2022-09-09T16:43:59.534Z,9.13
2022-09-09T16:46:28.922Z,4.82
2022-09-09T16:48:59.720Z,8.35
2022-09-09T16:51:28.541Z,6.50
2022-09-09T16:53:56.531Z,7.72
2022-09-09T16:56:28.530Z,4.78
2022-09-09T16:59:00.703Z,2.30
2022-09-09T17:01:31.081Z,2.90
2022-09-09T17:04:06.920Z,3.97
2022-09-09T17:06:38.727Z,5.30
2022-09-09T17:09:08.819Z,3.72
2022-09-09T17:11:37.016Z,3.70
2022-09-09T17:14:04.616Z,5.13
2022-09-09T17:16:33.348Z,4.00
2022-09-09T17:19:00.631Z,1.10
2022-09-09T17:21:29.592Z,3.10
2022-09-09T17:23:58.010Z,2.55
2022-09-09T17:26:28.722Z,2.38
2022-09-09T17:28:59.471Z,3.85
2022-09-09T17:31:28.744Z,2.22
2022-09-09T17:33:56.788Z,0.93
2022-09-09T17:36:32.996Z,2.40
2022-09-09T17:39:05.438Z,3.08
2022-09-09T17:41:38.067Z,6.45
2022-09-09T17:44:11.082Z,8.57
2022-09-09T17:46:43.100Z,3.80
2022-09-09T17:49:13.626Z,16.15
2022-09-09T17:51:42.801Z,4.65
2022-09-09T17:54:13.708Z,14.60
2022-09-09T17:56:42.528Z,3.63
2022-09-09T17:59:13.385Z,5.32
2022-09-09T18:01:45.192Z,8.68
2022-09-09T18:04:14.491Z,7.10
2022-09-09T18:06:48.444Z,3.53
2022-09-09T18:09:18.651Z,3.78
2022-09-09T18:11:51.612Z,4.10
2022-09-09T18:14:21.880Z,4.13
2022-09-09T18:16:49.664Z,5.60
2022-09-09T18:19:20.596Z,5.97
2022-09-09T18:21:48.182Z,4.88
2022-09-09T18:24:17.925Z,7.15
2022-09-09T18:26:46.033Z,5.30
2022-09-09T18:29:16.943Z,7.63
2022-09-09T18:31:44.861Z,5.32
2022-09-09T18:34:13.760Z,12.50
2022-09-09T18:36:47.131Z,4.32
2022-09-09T18:39:17.592Z,5.07
2022-09-09T18:41:50.671Z,3.42
2022-09-09T18:44:21.953Z,4.35
2022-09-09T18:46:54.348Z,5.43
2022-09-09T18:49:24.832Z,4.18
2022-09-09T18:51:52.465Z,7.03
2022-09-09T18:54:26.164Z,8.40
2022-09-09T18:56:56.635Z,5.30
2022-09-09T18:59:24.656Z,10.90
2022-09-09T19:01:53.711Z,11.82
2022-09-09T19:04:22.966Z,3.50
2022-09-09T19:06:52.759Z,7.70
2022-09-09T19:09:20.007Z,3.70
2022-09-09T19:11:47.784Z,7.45
2022-09-09T19:14:17.099Z,3.42
2022-09-09T19:16:46.109Z,9.90
2022-09-09T19:19:17.246Z,3.50
2022-09-09T19:24:20.304Z,4.88
2022-09-09T19:26:50.342Z,43.90
2022-09-09T19:29:23.649Z,39.08
2022-09-09T19:34:40.759Z,28.05
2022-09-09T19:37:08.218Z,85.40
2022-09-09T19:39:35.665Z,66.95
2022-09-09T19:42:02.757Z,60.63
2022-09-09T19:44:30.012Z,60.80
2022-09-09T19:46:57.863Z,61.38
2022-09-09T19:49:26.226Z,64.20
2022-09-09T19:51:58.054Z,60.20
2022-09-09T19:54:25.779Z,82.10
2022-09-09T19:56:57.372Z,57.40
2022-09-09T19:59:24.484Z,53.40
2022-09-09T20:01:52.201Z,47.10
2022-09-09T20:04:21.301Z,40.20
2022-09-09T20:06:49.786Z,39.15
2022-09-09T20:09:20.032Z,31.73
2022-09-09T20:11:48.954Z,33.30
2022-09-09T20:14:18.054Z,37.60
2022-09-09T20:16:47.311Z,43.03
2022-09-09T20:19:16.919Z,40.83
2022-09-09T20:21:48.977Z,45.05
2022-09-09T20:24:19.879Z,49.88
2022-09-09T20:26:49.448Z,37.13
2022-09-09T20:29:19.413Z,32.63
2022-09-09T20:31:49.437Z,34.33
2022-09-09T20:34:19.441Z,34.60
2022-09-09T20:36:47.237Z,33.15
2022-09-09T20:39:17.549Z,34.20
2022-09-09T20:41:46.743Z,30.30
2022-09-09T20:44:25.452Z,33.53
2022-09-09T20:46:57.786Z,20.10
2022-09-09T20:49:26.166Z,26.88
2022-09-09T20:51:56.132Z,24.48
2022-09-09T20:54:26.471Z,20.45
2022-09-09T20:59:25.158Z,14.90
2022-09-09T21:01:53.362Z,17.27
2022-09-09T21:04:22.454Z,11.30
2022-09-09T21:06:53.279Z,14.50
2022-09-09T21:09:23.746Z,14.65
2022-09-09T21:11:56.597Z,11.60
2022-09-09T21:14:24.897Z,14.43
2022-09-09T21:16:54.995Z,16.10
2022-09-09T21:19:22.427Z,10.95
2022-09-09T21:21:49.730Z,8.93
2022-09-09T21:24:17.764Z,8.65
2022-09-09T21:26:45.118Z,15.02
2022-09-09T21:29:14.266Z,7.68
2022-09-09T21:31:43.656Z,5.10
2022-09-09T21:34:10.981Z,11.15
2022-09-09T21:36:38.153Z,6.32
2022-09-09T21:39:05.380Z,7.43
2022-09-09T21:41:32.699Z,7.18
2022-09-09T21:43:59.921Z,6.45
2022-09-09T21:46:28.486Z,7.50
2022-09-09T21:48:58.716Z,4.70
2022-09-09T21:51:28.853Z,9.93
2022-09-09T21:53:57.034Z,4.55
2022-09-09T21:56:24.720Z,5.70
2022-09-09T21:58:57.196Z,3.92
2022-09-09T22:01:25.227Z,5.28
2022-09-09T22:03:52.435Z,4.53
2022-09-09T22:06:19.838Z,5.68
2022-09-09T22:08:48.308Z,5.45
2022-09-09T22:11:19.281Z,3.95
2022-09-09T22:13:49.420Z,2.42
2022-09-09T22:16:19.363Z,4.13
2022-09-09T22:18:51.989Z,3.17
2022-09-09T22:21:20.344Z,4.18
2022-09-09T22:23:59.286Z,2.45
2022-09-09T22:26:28.189Z,4.07
2022-09-09T22:28:57.520Z,3.50
2022-09-09T22:31:27.373Z,4.22
2022-09-09T22:33:54.769Z,3.15
2022-09-09T22:36:21.807Z,5.72
2022-09-09T22:38:50.196Z,2.95
2022-09-09T22:41:19.041Z,3.20
2022-09-09T22:43:46.870Z,2.65
2022-09-09T22:46:14.158Z,3.05
2022-09-09T22:48:41.292Z,2.17
2022-09-09T22:51:14.374Z,5.22
2022-09-09T22:53:42.621Z,2.92
2022-09-09T22:56:14.487Z,6.28
2022-09-09T22:58:41.778Z,3.50
2022-09-09T23:01:15.721Z,1.95
2022-09-09T23:03:46.440Z,2.03
2022-09-09T23:06:22.653Z,2.08
2022-09-09T23:08:52.368Z,3.40
2022-09-09T23:11:19.427Z,2.88
2022-09-09T23:13:52.824Z,1.38
2022-09-09T23:16:23.225Z,1.80
2022-09-09T23:18:52.454Z,3.28
2022-09-09T23:21:19.926Z,1.65
2022-09-09T23:23:46.878Z,1.80
2022-09-09T23:26:19.350Z,2.20
2022-09-09T23:28:48.117Z,2.00
2022-09-09T23:31:20.151Z,1.58
2022-09-09T23:33:48.316Z,1.25
2022-09-09T23:36:19.429Z,1.25
2022-09-09T23:41:21.372Z,1.60
2022-09-09T23:43:52.905Z,1.08
2022-09-09T23:46:22.846Z,2.65
2022-09-09T23:48:53.004Z,1.48
2022-09-09T23:51:24.202Z,1.60
2022-09-09T23:53:53.547Z,3.30
2022-09-09T23:56:22.022Z,1.30
2022-09-09T23:58:50.216Z,2.08
